createdAt,value
2023-05-11T00:00:19.422Z,92638.00
2023-05-11T00:01:19.105Z,92638.00
2023-05-11T00:02:19.196Z,92638.00
2023-05-11T00:03:19.293Z,92636.00
2023-05-11T00:04:19.152Z,92639.00
2023-05-11T00:05:19.110Z,92638.00
2023-05-11T00:06:19.090Z,92638.00
2023-05-11T00:07:19.093Z,92638.00
2023-05-11T00:08:19.090Z,92636.00
2023-05-11T00:09:19.165Z,92634.00
2023-05-11T00:10:19.310Z,92634.00
2023-05-11T00:11:19.097Z,92632.00
2023-05-11T00:12:19.097Z,92632.00
2023-05-11T00:13:19.089Z,92632.00
2023-05-11T00:14:19.096Z,92632.00
2023-05-11T00:15:19.109Z,92632.00
2023-05-11T00:16:19.104Z,92630.00
2023-05-11T00:17:19.112Z,92630.00
2023-05-11T00:18:19.153Z,92630.00
2023-05-11T00:19:19.073Z,92626.00
2023-05-11T00:20:19.263Z,92628.00
2023-05-11T00:21:19.136Z,92628.00
2023-05-11T00:22:19.072Z,92624.00
2023-05-11T00:23:19.052Z,92626.00
2023-05-11T00:24:19.066Z,92624.00
2023-05-11T00:25:19.061Z,92622.00
2023-05-11T00:26:19.095Z,92622.00
2023-05-11T00:27:19.070Z,92620.00
2023-05-11T00:28:19.064Z,92620.00
2023-05-11T00:29:19.068Z,92620.00
2023-05-11T00:30:19.270Z,92616.00
2023-05-11T00:31:19.147Z,92616.00
2023-05-11T00:32:19.100Z,92616.00
2023-05-11T00:33:19.103Z,92616.00
2023-05-11T00:34:19.127Z,92616.00
2023-05-11T00:35:19.234Z,92614.00
2023-05-11T00:36:19.277Z,92616.00
2023-05-11T00:37:19.357Z,92616.00
2023-05-11T00:38:19.399Z,92614.00
2023-05-11T00:39:19.474Z,92614.00
2023-05-11T00:40:19.618Z,92614.00
2023-05-11T00:41:19.546Z,92612.00
2023-05-11T00:42:19.597Z,92610.00
2023-05-11T00:43:19.668Z,92610.00
2023-05-11T00:44:19.751Z,92608.00
2023-05-11T00:45:19.800Z,92610.00
2023-05-11T00:46:19.898Z,92610.00
2023-05-11T00:47:19.993Z,92610.00
2023-05-11T00:48:20.005Z,92612.00
2023-05-11T00:49:20.067Z,92612.00
2023-05-11T00:50:20.202Z,92608.00
2023-05-11T00:51:20.188Z,92610.00
2023-05-11T00:52:20.263Z,92608.00
2023-05-11T00:53:20.338Z,92610.00
2023-05-11T00:54:20.438Z,92608.00
2023-05-11T00:55:20.523Z,92608.00
2023-05-11T00:56:20.569Z,92608.00
2023-05-11T00:57:20.646Z,92608.00
2023-05-11T00:58:20.700Z,92610.00
2023-05-11T00:59:20.754Z,92610.00
2023-05-11T01:00:20.921Z,92610.00
2023-05-11T01:01:20.936Z,92612.00
2023-05-11T01:02:21.016Z,92610.00
2023-05-11T01:03:21.034Z,92612.00
2023-05-11T01:04:21.098Z,92612.00
2023-05-11T01:05:21.154Z,92614.00
2023-05-11T01:06:21.239Z,92612.00
2023-05-11T01:07:21.805Z,92612.00
2023-05-11T01:08:21.363Z,92610.00
2023-05-11T01:09:21.414Z,92614.00
2023-05-11T01:10:21.470Z,92612.00
2023-05-11T01:11:21.568Z,92610.00
2023-05-11T01:12:21.547Z,92610.00
2023-05-11T01:13:21.571Z,92610.00
2023-05-11T01:14:21.820Z,92610.00
2023-05-11T01:15:21.660Z,92608.00
2023-05-11T01:16:21.730Z,92608.00
2023-05-11T01:17:21.737Z,92608.00
2023-05-11T01:18:21.859Z,92610.00
2023-05-11T01:19:21.863Z,92608.00
2023-05-11T01:20:21.927Z,92606.00
2023-05-11T01:21:21.999Z,92606.00
2023-05-11T01:22:22.042Z,92608.00
2023-05-11T01:23:22.803Z,92608.00
2023-05-11T01:24:22.123Z,92608.00
2023-05-11T01:25:22.184Z,92608.00
2023-05-11T01:26:22.210Z,92606.00
2023-05-11T01:27:22.239Z,92606.00
2023-05-11T01:28:22.281Z,92606.00
2023-05-11T01:29:22.333Z,92606.00
2023-05-11T01:30:22.354Z,92608.00
2023-05-11T01:31:22.447Z,92606.00
2023-05-11T01:32:22.462Z,92606.00
2023-05-11T01:33:22.473Z,92602.00
2023-05-11T01:34:22.515Z,92606.00
2023-05-11T01:35:22.523Z,92604.00
2023-05-11T01:36:22.545Z,92604.00
2023-05-11T01:37:22.625Z,92602.00
2023-05-11T01:38:22.651Z,92602.00
2023-05-11T01:39:22.705Z,92604.00
2023-05-11T01:40:22.753Z,92604.00
2023-05-11T01:41:22.784Z,92604.00
2023-05-11T01:42:22.822Z,92600.00
2023-05-11T01:43:22.845Z,92602.00
2023-05-11T01:44:22.853Z,92604.00
2023-05-11T01:45:22.896Z,92602.00
2023-05-11T01:46:23.001Z,92600.00
2023-05-11T01:47:22.984Z,92600.00
2023-05-11T01:48:22.977Z,92600.00
2023-05-11T01:49:22.996Z,92600.00
2023-05-11T01:50:23.019Z,92602.00
2023-05-11T01:51:23.037Z,92600.00
2023-05-11T01:52:23.100Z,92600.00
2023-05-11T01:53:23.134Z,92600.00
2023-05-11T01:54:23.187Z,92600.00
2023-05-11T01:55:23.228Z,92600.00
2023-05-11T01:56:23.262Z,92600.00
2023-05-11T01:57:23.301Z,92598.00
2023-05-11T01:58:23.320Z,92598.00
2023-05-11T01:59:23.351Z,92600.00
2023-05-11T02:00:23.376Z,92594.00
2023-05-11T02:01:23.461Z,92596.00
2023-05-11T02:02:23.587Z,92596.00
2023-05-11T02:03:23.538Z,92596.00
2023-05-11T02:04:23.631Z,92596.00
2023-05-11T02:05:23.851Z,92596.00
2023-05-11T02:06:23.609Z,92594.00
2023-05-11T02:07:23.628Z,92594.00
2023-05-11T02:08:23.634Z,92596.00
2023-05-11T02:09:23.678Z,92596.00
2023-05-11T02:10:23.729Z,92594.00
2023-05-11T02:11:23.776Z,92594.00
2023-05-11T02:12:23.771Z,92594.00
2023-05-11T02:13:23.786Z,92592.00
2023-05-11T02:14:23.815Z,92592.00
2023-05-11T02:15:23.822Z,92592.00
2023-05-11T02:16:23.892Z,92592.00
2023-05-11T02:17:23.873Z,92594.00
2023-05-11T02:18:23.887Z,92592.00
2023-05-11T02:19:23.883Z,92594.00
2023-05-11T02:20:23.896Z,92594.00
2023-05-11T02:21:23.932Z,92592.00
2023-05-11T02:22:23.949Z,92592.00
2023-05-11T02:23:23.966Z,92591.00
2023-05-11T02:24:23.971Z,92589.00
2023-05-11T02:25:24.010Z,92587.00
2023-05-11T02:26:24.005Z,92589.00
2023-05-11T02:27:24.015Z,92587.00
2023-05-11T02:28:24.017Z,92589.00
2023-05-11T02:29:24.033Z,92585.00
2023-05-11T02:30:24.055Z,92589.00
2023-05-11T02:31:24.094Z,92587.00
2023-05-11T02:32:24.151Z,92587.00
2023-05-11T02:33:24.177Z,92587.00
2023-05-11T02:34:24.114Z,92585.00
2023-05-11T02:35:24.125Z,92585.00
2023-05-11T02:36:24.168Z,92585.00
2023-05-11T02:37:24.185Z,92585.00
2023-05-11T02:38:24.166Z,92577.00
2023-05-11T02:39:24.189Z,92575.00
2023-05-11T02:40:24.197Z,92585.00
2023-05-11T02:41:24.206Z,92577.00
2023-05-11T02:42:24.217Z,92577.00
2023-05-11T02:43:24.247Z,92577.00
2023-05-11T02:44:24.272Z,92577.00
2023-05-11T02:45:24.311Z,92577.00
2023-05-11T02:46:24.354Z,92587.00
2023-05-11T02:47:24.333Z,92585.00
2023-05-11T02:48:24.349Z,92587.00
2023-05-11T02:49:24.371Z,92585.00
2023-05-11T02:50:24.405Z,92585.00
2023-05-11T02:51:24.437Z,92585.00
2023-05-11T02:52:24.412Z,92585.00
2023-05-11T02:53:24.391Z,92587.00
2023-05-11T02:54:24.428Z,92587.00
2023-05-11T02:55:24.440Z,92587.00
2023-05-11T02:56:24.448Z,92587.00
2023-05-11T02:57:24.456Z,92587.00
2023-05-11T02:58:24.492Z,92587.00
2023-05-11T02:59:24.467Z,92589.00
2023-05-11T03:00:25.412Z,92589.00
2023-05-11T03:01:24.855Z,92587.00
2023-05-11T03:02:24.629Z,92585.00
2023-05-11T03:03:24.606Z,92585.00
2023-05-11T03:04:24.559Z,92577.00
2023-05-11T03:05:24.624Z,92585.00
2023-05-11T03:06:24.565Z,92585.00
2023-05-11T03:07:24.585Z,92577.00
2023-05-11T03:08:24.598Z,92575.00
2023-05-11T03:09:24.610Z,92577.00
2023-05-11T03:10:24.607Z,92585.00
2023-05-11T03:11:24.620Z,92577.00
2023-05-11T03:12:24.640Z,92575.00
2023-05-11T03:13:24.648Z,92573.00
2023-05-11T03:14:24.669Z,92573.00
2023-05-11T03:15:24.678Z,92571.00
2023-05-11T03:16:24.717Z,92571.00
2023-05-11T03:17:24.755Z,92571.00
2023-05-11T03:18:24.779Z,92569.00
2023-05-11T03:19:24.744Z,92571.00
2023-05-11T03:20:24.770Z,92571.00
2023-05-11T03:21:24.780Z,92571.00
2023-05-11T03:22:24.780Z,92571.00
2023-05-11T03:23:24.796Z,92571.00
2023-05-11T03:24:24.837Z,92569.00
2023-05-11T03:25:25.358Z,92571.00
2023-05-11T03:26:24.870Z,92569.00
2023-05-11T03:27:24.876Z,92571.00
2023-05-11T03:28:24.897Z,92571.00
2023-05-11T03:29:25.354Z,92569.00
2023-05-11T03:30:24.940Z,92569.00
2023-05-11T03:31:24.985Z,92569.00
2023-05-11T03:32:25.242Z,92569.00
2023-05-11T03:33:25.001Z,92567.00
2023-05-11T03:34:25.040Z,92569.00
2023-05-11T03:35:25.048Z,92565.00
2023-05-11T03:36:25.063Z,92563.00
2023-05-11T03:37:25.093Z,92565.00
2023-05-11T03:38:25.108Z,92567.00
2023-05-11T03:39:25.130Z,92565.00
2023-05-11T03:40:25.154Z,92565.00
2023-05-11T03:41:25.163Z,92563.00
2023-05-11T03:42:25.193Z,92561.00
2023-05-11T03:43:25.239Z,92559.00
2023-05-11T03:44:25.228Z,92557.00
2023-05-11T03:45:25.250Z,92555.00
2023-05-11T03:46:25.443Z,92557.00
2023-05-11T03:47:25.340Z,92555.00
2023-05-11T03:48:25.312Z,92557.00
2023-05-11T03:49:25.327Z,92557.00
2023-05-11T03:50:25.340Z,92555.00
2023-05-11T03:51:25.384Z,92554.00
2023-05-11T03:52:25.418Z,92554.00
2023-05-11T03:53:25.422Z,92554.00
2023-05-11T03:54:25.430Z,92554.00
2023-05-11T03:55:25.446Z,92554.00
2023-05-11T03:56:25.465Z,92554.00
2023-05-11T03:57:25.487Z,92554.00
2023-05-11T03:58:25.489Z,92550.00
2023-05-11T03:59:25.569Z,92548.00
2023-05-11T04:00:25.546Z,92546.00
2023-05-11T04:01:25.553Z,92548.00
2023-05-11T04:02:25.719Z,92544.00
2023-05-11T04:03:26.626Z,92544.00
2023-05-11T04:04:25.632Z,92544.00
2023-05-11T04:05:25.633Z,92544.00
2023-05-11T04:06:25.656Z,92542.00
2023-05-11T04:07:25.670Z,92544.00
2023-05-11T04:08:25.700Z,92544.00
2023-05-11T04:09:25.719Z,92544.00
2023-05-11T04:10:25.751Z,92546.00
2023-05-11T04:11:25.780Z,92548.00
2023-05-11T04:12:25.782Z,92546.00
2023-05-11T04:13:25.802Z,92546.00
2023-05-11T04:14:25.833Z,92546.00
2023-05-11T04:15:25.911Z,92546.00
2023-05-11T04:16:25.923Z,92548.00
2023-05-11T04:17:25.921Z,92548.00
2023-05-11T04:18:26.071Z,92546.00
2023-05-11T04:19:25.943Z,92542.00
2023-05-11T04:20:25.949Z,92544.00
2023-05-11T04:21:25.977Z,92542.00
2023-05-11T04:22:26.004Z,92540.00
2023-05-11T04:23:26.027Z,92542.00
2023-05-11T04:24:26.065Z,92540.00
2023-05-11T04:25:26.096Z,92538.00
2023-05-11T04:26:26.102Z,92538.00
2023-05-11T04:27:26.135Z,92540.00
2023-05-11T04:28:26.162Z,92538.00
2023-05-11T04:29:26.214Z,92538.00
2023-05-11T04:30:26.212Z,92538.00
2023-05-11T04:31:26.311Z,92538.00
2023-05-11T04:32:26.313Z,92538.00
2023-05-11T04:33:26.285Z,92540.00
2023-05-11T04:34:26.301Z,92538.00
2023-05-11T04:35:26.337Z,92540.00
2023-05-11T04:36:26.361Z,92542.00
2023-05-11T04:37:26.381Z,92542.00
2023-05-11T04:38:26.405Z,92542.00
2023-05-11T04:39:26.417Z,92542.00
2023-05-11T04:40:26.448Z,92542.00
2023-05-11T04:41:26.478Z,92544.00
2023-05-11T04:42:26.505Z,92544.00
2023-05-11T04:43:26.532Z,92540.00
2023-05-11T04:44:26.557Z,92544.00
2023-05-11T04:45:26.589Z,92544.00
2023-05-11T04:46:26.628Z,92540.00
2023-05-11T04:47:26.667Z,92538.00
2023-05-11T04:48:26.680Z,92538.00
2023-05-11T04:49:26.702Z,92536.00
2023-05-11T04:50:26.732Z,92536.00
2023-05-11T04:51:26.746Z,92536.00
2023-05-11T04:52:26.844Z,92536.00
2023-05-11T04:53:26.811Z,92538.00
2023-05-11T04:54:26.839Z,92538.00
2023-05-11T04:55:26.868Z,92540.00
2023-05-11T04:56:26.885Z,92540.00
2023-05-11T04:57:26.918Z,92544.00
2023-05-11T04:58:26.950Z,92544.00
2023-05-11T04:59:26.990Z,92544.00
2023-05-11T05:00:27.023Z,92544.00
2023-05-11T05:01:27.048Z,92546.00
2023-05-11T05:02:27.091Z,92548.00
2023-05-11T05:03:27.116Z,92548.00
2023-05-11T05:04:27.119Z,92546.00
2023-05-11T05:05:27.155Z,92546.00
2023-05-11T05:06:27.178Z,92548.00
2023-05-11T05:07:27.253Z,92546.00
2023-05-11T05:08:27.297Z,92548.00
2023-05-11T05:09:27.305Z,92548.00
2023-05-11T05:10:27.289Z,92546.00
2023-05-11T05:11:27.323Z,92546.00
2023-05-11T05:12:27.368Z,92544.00
2023-05-11T05:13:27.417Z,92546.00
2023-05-11T05:14:27.419Z,92544.00
2023-05-11T05:15:27.463Z,92542.00
2023-05-11T05:16:28.152Z,92544.00
2023-05-11T05:17:27.563Z,92546.00
2023-05-11T05:18:27.573Z,92542.00
2023-05-11T05:19:27.554Z,92546.00
2023-05-11T05:20:27.586Z,92544.00
2023-05-11T05:21:27.619Z,92544.00
2023-05-11T05:22:27.648Z,92544.00
2023-05-11T05:23:27.678Z,92540.00
2023-05-11T05:24:27.711Z,92542.00
2023-05-11T05:25:27.733Z,92540.00
2023-05-11T05:26:27.749Z,92542.00
2023-05-11T05:27:27.778Z,92542.00
2023-05-11T05:28:27.793Z,92540.00
2023-05-11T05:29:27.804Z,92544.00
2023-05-11T05:30:27.815Z,92542.00
2023-05-11T05:31:27.854Z,92544.00
2023-05-11T05:32:27.914Z,92548.00
2023-05-11T05:33:27.932Z,92546.00
2023-05-11T05:34:27.862Z,92548.00
2023-05-11T05:35:28.877Z,92548.00
2023-05-11T05:36:28.013Z,92544.00
2023-05-11T05:37:28.077Z,92546.00
2023-05-11T05:38:28.150Z,92557.00
2023-05-11T05:39:28.212Z,92548.00
2023-05-11T05:40:28.282Z,92548.00
2023-05-11T05:41:28.333Z,92548.00
2023-05-11T05:42:28.382Z,92548.00
2023-05-11T05:43:28.469Z,92548.00
2023-05-11T05:44:28.487Z,92548.00
2023-05-11T05:45:29.401Z,92550.00
2023-05-11T05:46:28.629Z,92550.00
2023-05-11T05:47:28.660Z,92550.00
2023-05-11T05:48:28.646Z,92550.00
2023-05-11T05:49:28.683Z,92548.00
2023-05-11T05:50:28.920Z,92544.00
2023-05-11T05:51:28.739Z,92542.00
2023-05-11T05:52:28.776Z,92544.00
2023-05-11T05:53:28.791Z,92542.00
2023-05-11T05:54:28.948Z,92544.00
2023-05-11T05:55:28.949Z,92546.00
2023-05-11T05:56:28.865Z,92546.00
2023-05-11T05:57:28.993Z,92548.00
2023-05-11T05:58:28.944Z,92548.00
2023-05-11T05:59:28.984Z,92546.00
2023-05-11T06:00:29.039Z,92550.00
2023-05-11T06:01:29.037Z,92552.00
2023-05-11T06:02:29.975Z,92552.00
2023-05-11T06:03:29.685Z,92548.00
2023-05-11T06:04:29.122Z,92550.00
2023-05-11T06:05:29.090Z,92550.00
2023-05-11T06:06:29.083Z,92546.00
2023-05-11T06:07:29.091Z,92548.00
2023-05-11T06:08:29.098Z,92548.00
2023-05-11T06:09:29.108Z,92550.00
2023-05-11T06:10:29.179Z,92550.00
2023-05-11T06:11:29.117Z,92550.00
2023-05-11T06:12:29.906Z,92550.00
2023-05-11T06:13:29.146Z,92548.00
2023-05-11T06:14:29.243Z,92550.00
2023-05-11T06:15:29.149Z,92548.00
2023-05-11T06:16:29.445Z,92548.00
2023-05-11T06:17:29.193Z,92546.00
2023-05-11T06:18:29.198Z,92546.00
2023-05-11T06:19:29.159Z,92546.00
2023-05-11T06:20:29.257Z,92546.00
2023-05-11T06:21:29.166Z,92544.00
2023-05-11T06:22:29.156Z,92548.00
2023-05-11T06:23:29.188Z,92548.00
2023-05-11T06:24:29.162Z,92550.00
2023-05-11T06:25:29.272Z,92552.00
2023-05-11T06:26:29.256Z,92552.00
2023-05-11T06:27:29.224Z,92552.00
2023-05-11T06:28:29.261Z,92554.00
2023-05-11T06:29:29.211Z,92552.00
2023-05-11T06:30:29.224Z,92550.00
2023-05-11T06:31:29.391Z,92552.00
2023-05-11T06:32:29.385Z,92552.00
2023-05-11T06:33:29.296Z,92552.00
2023-05-11T06:34:29.310Z,92552.00
2023-05-11T06:35:30.002Z,92552.00
2023-05-11T06:36:29.365Z,92550.00
2023-05-11T06:37:29.374Z,92548.00
2023-05-11T06:38:29.406Z,92552.00
2023-05-11T06:39:29.454Z,92552.00
2023-05-11T06:40:29.529Z,92550.00
2023-05-11T06:41:29.618Z,92548.00
2023-05-11T06:42:29.636Z,92550.00
2023-05-11T06:43:29.620Z,92548.00
2023-05-11T06:44:29.667Z,92544.00
2023-05-11T06:45:29.818Z,92548.00
2023-05-11T06:46:29.780Z,92546.00
2023-05-11T06:47:29.869Z,92548.00
2023-05-11T06:48:30.084Z,92550.00
2023-05-11T06:49:29.910Z,92548.00
2023-05-11T06:50:30.257Z,92552.00
2023-05-11T06:51:30.020Z,92554.00
2023-05-11T06:52:30.065Z,92554.00
2023-05-11T06:53:30.110Z,92550.00
2023-05-11T06:54:30.152Z,92552.00
2023-05-11T06:55:30.213Z,92552.00
2023-05-11T06:56:30.273Z,92552.00
2023-05-11T06:57:30.298Z,92552.00
2023-05-11T06:58:30.356Z,92554.00
2023-05-11T06:59:30.401Z,92554.00
2023-05-11T07:00:31.359Z,92552.00
2023-05-11T07:01:30.556Z,92552.00
2023-05-11T07:02:30.568Z,92546.00
2023-05-11T07:03:30.938Z,92546.00
2023-05-11T07:04:30.662Z,92544.00
2023-05-11T07:05:30.706Z,92544.00
2023-05-11T07:06:31.427Z,92542.00
2023-05-11T07:07:30.762Z,92546.00
2023-05-11T07:08:30.813Z,92546.00
2023-05-11T07:09:30.850Z,92542.00
2023-05-11T07:10:30.897Z,92540.00
2023-05-11T07:11:30.934Z,92542.00
2023-05-11T07:12:30.976Z,92540.00
2023-05-11T07:13:31.006Z,92544.00
2023-05-11T07:14:31.111Z,92540.00
2023-05-11T07:15:31.074Z,92542.00
2023-05-11T07:16:31.122Z,92540.00
2023-05-11T07:17:31.145Z,92544.00
2023-05-11T07:18:31.237Z,92538.00
2023-05-11T07:19:31.275Z,92536.00
2023-05-11T07:20:31.240Z,92538.00
2023-05-11T07:21:31.298Z,92540.00
2023-05-11T07:22:31.392Z,92540.00
2023-05-11T07:23:31.432Z,92540.00
2023-05-11T07:24:31.497Z,92538.00
2023-05-11T07:25:31.552Z,92540.00
2023-05-11T07:26:31.576Z,92540.00
2023-05-11T07:27:31.600Z,92538.00
2023-05-11T07:28:31.642Z,92540.00
2023-05-11T07:29:31.724Z,92538.00
2023-05-11T07:30:31.651Z,92532.00
2023-05-11T07:31:31.760Z,92536.00
2023-05-11T07:32:31.692Z,92536.00
2023-05-11T07:33:31.679Z,92538.00
2023-05-11T07:34:31.702Z,92536.00
2023-05-11T07:35:31.778Z,92536.00
2023-05-11T07:36:31.879Z,92538.00
2023-05-11T07:37:31.881Z,92538.00
2023-05-11T07:38:31.946Z,92536.00
2023-05-11T07:39:31.992Z,92536.00
2023-05-11T07:40:32.056Z,92534.00
2023-05-11T07:41:32.117Z,92534.00
2023-05-11T07:42:32.164Z,92534.00
2023-05-11T07:43:32.213Z,92532.00
2023-05-11T07:44:32.257Z,92532.00
2023-05-11T07:45:32.944Z,92530.00
2023-05-11T07:46:32.372Z,92532.00
2023-05-11T07:47:34.387Z,92530.00
2023-05-11T07:48:32.384Z,92530.00
2023-05-11T07:49:42.900Z,92530.00
2023-05-11T07:50:33.366Z,92530.00
2023-05-11T07:51:32.353Z,92532.00
2023-05-11T07:52:32.358Z,92532.00
2023-05-11T07:53:32.332Z,92534.00
2023-05-11T07:54:32.328Z,92532.00
2023-05-11T07:55:32.327Z,92536.00
2023-05-11T07:56:32.340Z,92534.00
2023-05-11T07:57:32.307Z,92536.00
2023-05-11T07:58:32.309Z,92534.00
2023-05-11T07:59:32.316Z,92534.00
2023-05-11T08:00:32.378Z,92534.00
2023-05-11T08:01:32.441Z,92532.00
2023-05-11T08:02:32.544Z,92534.00
2023-05-11T08:03:32.540Z,92532.00
2023-05-11T08:04:32.587Z,92534.00
2023-05-11T08:05:32.633Z,92530.00
2023-05-11T08:06:32.661Z,92530.00
2023-05-11T08:07:32.721Z,92526.00
2023-05-11T08:08:32.733Z,92530.00
2023-05-11T08:09:32.772Z,92528.00
2023-05-11T08:10:32.842Z,92526.00
2023-05-11T08:11:32.850Z,92528.00
2023-05-11T08:12:32.887Z,92530.00
2023-05-11T08:13:32.922Z,92528.00
2023-05-11T08:14:32.944Z,92526.00
2023-05-11T08:15:33.489Z,92522.00
2023-05-11T08:16:33.031Z,92522.00
2023-05-11T08:17:33.082Z,92524.00
2023-05-11T08:18:33.125Z,92524.00
2023-05-11T08:19:33.126Z,92526.00
2023-05-11T08:20:33.132Z,92522.00
2023-05-11T08:21:33.131Z,92526.00
2023-05-11T08:22:33.127Z,92522.00
2023-05-11T08:23:33.137Z,92520.00
2023-05-11T08:24:33.164Z,92524.00
2023-05-11T08:25:33.144Z,92522.00
2023-05-11T08:26:33.194Z,92520.00
2023-05-11T08:27:33.188Z,92520.00
2023-05-11T08:28:33.202Z,92516.00
2023-05-11T08:29:33.243Z,92518.00
2023-05-11T08:30:33.275Z,92518.00
2023-05-11T08:31:33.370Z,92516.00
2023-05-11T08:32:40.685Z,92518.00
2023-05-11T08:33:38.115Z,92518.00
2023-05-11T08:34:33.438Z,92520.00
2023-05-11T08:35:33.343Z,92516.00
2023-05-11T08:36:33.358Z,92516.00
2023-05-11T08:37:33.335Z,92516.00
2023-05-11T08:38:33.334Z,92518.00
2023-05-11T08:40:34.336Z,92514.00
2023-05-11T08:41:33.331Z,92514.00
2023-05-11T08:42:33.416Z,92512.00
2023-05-11T08:43:33.333Z,92516.00
2023-05-11T08:44:33.339Z,92516.00
2023-05-11T08:45:33.357Z,92518.00
2023-05-11T08:46:33.342Z,92516.00
2023-05-11T08:47:33.347Z,92520.00
2023-05-11T08:48:33.344Z,92516.00
2023-05-11T08:49:33.349Z,92518.00
2023-05-11T08:50:33.392Z,92514.00
2023-05-11T08:51:33.417Z,92512.00
2023-05-11T08:52:33.434Z,92506.00
2023-05-11T08:53:33.460Z,92510.00
2023-05-11T08:54:33.472Z,92508.00
2023-05-11T08:55:33.470Z,92508.00
2023-05-11T08:56:33.479Z,92512.00
2023-05-11T08:57:33.457Z,92512.00
2023-05-11T08:58:33.466Z,92510.00
2023-05-11T08:59:33.452Z,92510.00
2023-05-11T09:00:33.452Z,92510.00
2023-05-11T09:01:33.525Z,92510.00
2023-05-11T09:02:33.577Z,92512.00
2023-05-11T09:03:33.552Z,92510.00
2023-05-11T09:04:33.607Z,92512.00
2023-05-11T09:05:33.677Z,92510.00
2023-05-11T09:06:33.704Z,92504.00
2023-05-11T09:07:33.762Z,92502.00
2023-05-11T09:08:33.810Z,92502.00
2023-05-11T09:09:33.870Z,92500.00
2023-05-11T09:10:33.906Z,92502.00
2023-05-11T09:11:33.978Z,92504.00
2023-05-11T09:12:34.015Z,92506.00
2023-05-11T09:13:34.071Z,92504.00
2023-05-11T09:14:34.139Z,92504.00
2023-05-11T09:16:37.474Z,92499.00
2023-05-11T09:17:34.164Z,92497.00
2023-05-11T09:18:35.032Z,92497.00
2023-05-11T09:19:34.138Z,92499.00
2023-05-11T09:20:34.123Z,92499.00
2023-05-11T09:21:34.125Z,92499.00
2023-05-11T09:22:36.199Z,92500.00
2023-05-11T09:23:34.282Z,92499.00
2023-05-11T09:24:34.350Z,92500.00
2023-05-11T09:25:34.414Z,92500.00
2023-05-11T09:26:34.493Z,92502.00
2023-05-11T09:27:34.545Z,92502.00
2023-05-11T09:29:34.627Z,92502.00
2023-05-11T09:30:34.664Z,92499.00
2023-05-11T09:31:34.767Z,92495.00
2023-05-11T09:32:34.754Z,92495.00
2023-05-11T09:33:34.713Z,92495.00
2023-05-11T09:34:34.738Z,92493.00
2023-05-11T09:35:34.765Z,92497.00
2023-05-11T09:36:34.853Z,92495.00
2023-05-11T09:37:34.757Z,92495.00
2023-05-11T09:38:34.760Z,92493.00
2023-05-11T09:39:42.039Z,92491.00
2023-05-11T09:40:35.934Z,92493.00
2023-05-11T09:41:35.552Z,92493.00
2023-05-11T09:42:34.763Z,92489.00
2023-05-11T09:43:34.768Z,92489.00
2023-05-11T09:44:34.772Z,92487.00
2023-05-11T09:45:34.769Z,92487.00
2023-05-11T09:46:34.815Z,92485.00
2023-05-11T09:47:34.779Z,92483.00
2023-05-11T09:48:34.766Z,92483.00
2023-05-11T09:49:34.771Z,92483.00
2023-05-11T09:50:34.785Z,92481.00
2023-05-11T09:51:35.009Z,92477.00
2023-05-11T09:52:34.772Z,92477.00
2023-05-11T09:53:34.766Z,92477.00
2023-05-11T09:54:34.761Z,92475.00
2023-05-11T09:55:34.779Z,92475.00
2023-05-11T09:56:34.770Z,92471.00
2023-05-11T09:57:35.489Z,92473.00
2023-05-11T09:58:34.759Z,92475.00
2023-05-11T09:59:34.808Z,92471.00
2023-05-11T10:00:34.764Z,92473.00
2023-05-11T10:01:34.784Z,92471.00
2023-05-11T10:02:34.862Z,92473.00
2023-05-11T10:03:34.834Z,92469.00
2023-05-11T10:04:34.886Z,92471.00
2023-05-11T10:05:34.762Z,92467.00
2023-05-11T10:06:34.791Z,92465.00
2023-05-11T10:07:34.755Z,92463.00
2023-05-11T10:08:34.742Z,92463.00
2023-05-11T10:09:34.890Z,92457.00
2023-05-11T10:10:34.775Z,92461.00
2023-05-11T10:11:34.795Z,92457.00
2023-05-11T10:12:34.832Z,92457.00
2023-05-11T10:13:34.830Z,92457.00
2023-05-11T10:14:34.908Z,92455.00
2023-05-11T10:15:34.900Z,92453.00
2023-05-11T10:16:34.982Z,92455.00
2023-05-11T10:17:35.091Z,92450.00
2023-05-11T10:18:35.035Z,92450.00
2023-05-11T10:19:34.963Z,92448.00
2023-05-11T10:20:34.985Z,92450.00
2023-05-11T10:21:34.989Z,92448.00
2023-05-11T10:22:35.088Z,92446.00
2023-05-11T10:23:35.036Z,92442.00
2023-05-11T10:24:35.060Z,92446.00
2023-05-11T10:25:35.092Z,92444.00
2023-05-11T10:26:35.096Z,92442.00
2023-05-11T10:27:35.103Z,92442.00
2023-05-11T10:28:35.133Z,92442.00
2023-05-11T10:29:35.147Z,92440.00
2023-05-11T10:30:35.290Z,92440.00
2023-05-11T10:31:35.246Z,92436.00
2023-05-11T10:32:35.224Z,92438.00
2023-05-11T10:33:35.210Z,92436.00
2023-05-11T10:34:35.234Z,92432.00
2023-05-11T10:35:35.239Z,92434.00
2023-05-11T10:36:35.257Z,92430.00
2023-05-11T10:37:35.267Z,92428.00
2023-05-11T10:38:35.286Z,92428.00
2023-05-11T10:39:36.020Z,92428.00
2023-05-11T10:40:35.326Z,92428.00
2023-05-11T10:41:35.407Z,92428.00
2023-05-11T10:42:35.949Z,92424.00
2023-05-11T10:43:35.410Z,92422.00
2023-05-11T10:44:35.371Z,92418.00
2023-05-11T10:45:35.445Z,92418.00
2023-05-11T10:46:35.649Z,92414.00
2023-05-11T10:47:35.444Z,92414.00
2023-05-11T10:48:35.421Z,92414.00
2023-05-11T10:49:35.433Z,92414.00
2023-05-11T10:50:35.461Z,92410.00
2023-05-11T10:51:35.478Z,92408.00
2023-05-11T10:52:35.490Z,92406.00
2023-05-11T10:53:35.500Z,92406.00
2023-05-11T10:54:35.519Z,92405.00
2023-05-11T10:55:35.598Z,92403.00
2023-05-11T10:56:35.542Z,92405.00
2023-05-11T10:57:35.546Z,92403.00
2023-05-11T10:58:35.555Z,92401.00
2023-05-11T10:59:35.585Z,92401.00
2023-05-11T11:00:35.689Z,92399.00
2023-05-11T11:01:35.670Z,92399.00
2023-05-11T11:02:35.715Z,92397.00
2023-05-11T11:03:35.650Z,92395.00
2023-05-11T11:04:35.669Z,92395.00
2023-05-11T11:05:35.712Z,92395.00
2023-05-11T11:06:35.708Z,92395.00
2023-05-11T11:07:36.570Z,92391.00
2023-05-11T11:08:35.745Z,92393.00
2023-05-11T11:09:35.761Z,92395.00
2023-05-11T11:10:35.775Z,92395.00
2023-05-11T11:11:35.786Z,92395.00
2023-05-11T11:12:35.794Z,92395.00
2023-05-11T11:13:35.807Z,92393.00
2023-05-11T11:14:35.826Z,92393.00
2023-05-11T11:15:35.843Z,92389.00
2023-05-11T11:16:36.007Z,92389.00
2023-05-11T11:17:36.165Z,92389.00
2023-05-11T11:18:35.956Z,92393.00
2023-05-11T11:19:35.897Z,92395.00
2023-05-11T11:20:35.921Z,92389.00
2023-05-11T11:21:35.947Z,92393.00
2023-05-11T11:22:35.991Z,92387.00
2023-05-11T11:23:35.982Z,92387.00
2023-05-11T11:24:36.002Z,92387.00
2023-05-11T11:25:36.049Z,92385.00
2023-05-11T11:26:36.025Z,92383.00
2023-05-11T11:27:36.030Z,92385.00
2023-05-11T11:28:36.056Z,92385.00
2023-05-11T11:29:36.132Z,92383.00
2023-05-11T11:30:36.142Z,92381.00
2023-05-11T11:31:36.137Z,92383.00
2023-05-11T11:32:36.136Z,92383.00
2023-05-11T11:33:36.124Z,92385.00
2023-05-11T11:34:36.123Z,92383.00
2023-05-11T11:35:36.163Z,92387.00
2023-05-11T11:36:36.163Z,92385.00
2023-05-11T11:37:36.223Z,92385.00
2023-05-11T11:38:36.257Z,92385.00
2023-05-11T11:39:36.224Z,92385.00
2023-05-11T11:40:43.265Z,92383.00
2023-05-11T11:41:37.237Z,92383.00
2023-05-11T11:42:36.235Z,92381.00
2023-05-11T11:43:37.862Z,92383.00
2023-05-11T11:44:36.233Z,92381.00
2023-05-11T11:45:36.224Z,92383.00
2023-05-11T11:46:36.266Z,92383.00
2023-05-11T11:47:36.245Z,92383.00